createdAt,value
2023-03-12T00:00:24.451Z,-2.98
2023-03-12T00:01:23.535Z,-2.95
2023-03-12T00:02:23.548Z,-2.92
2023-03-12T00:03:23.530Z,-2.95
2023-03-12T00:04:23.505Z,-2.92
2023-03-12T00:05:23.475Z,-3.01
2023-03-12T00:06:23.489Z,-2.92
2023-03-12T00:07:23.471Z,-2.91
2023-03-12T00:08:23.487Z,-2.94
2023-03-12T00:09:23.455Z,-2.94
2023-03-12T00:10:23.454Z,-2.89
2023-03-12T00:11:23.456Z,-2.92
2023-03-12T00:12:23.446Z,-2.89
2023-03-12T00:13:23.436Z,-2.95
2023-03-12T00:14:23.423Z,-2.86
2023-03-12T00:15:23.422Z,-2.91
2023-03-12T00:16:23.512Z,-2.76
2023-03-12T00:17:23.409Z,-2.74
2023-03-12T00:18:23.399Z,-2.71
2023-03-12T00:19:23.394Z,-2.73
2023-03-12T00:20:23.518Z,-2.60
2023-03-12T00:21:23.389Z,-2.62
2023-03-12T00:22:23.371Z,-2.58
2023-03-12T00:24:22.986Z,-2.58
2023-03-12T00:25:22.980Z,-2.44
2023-03-12T00:26:24.078Z,-2.44
2023-03-12T00:27:24.062Z,-2.44
2023-03-12T00:28:24.705Z,-2.44
2023-03-12T00:29:24.037Z,-2.47
2023-03-12T00:30:24.049Z,-2.47
2023-03-12T00:31:24.096Z,-2.42
2023-03-12T00:32:24.075Z,-2.50
2023-03-12T00:33:24.016Z,-2.45
2023-03-12T00:34:23.997Z,-2.42
2023-03-12T00:35:24.076Z,-2.38
2023-03-12T00:36:23.980Z,-2.40
2023-03-12T00:37:23.985Z,-2.34
2023-03-12T00:38:23.998Z,-2.40
2023-03-12T00:39:24.013Z,-2.38
2023-03-12T00:40:23.951Z,-2.35
2023-03-12T00:41:23.969Z,-2.34
2023-03-12T00:42:23.944Z,-2.37
2023-03-12T00:43:23.928Z,-2.28
2023-03-12T00:44:23.931Z,-2.34
2023-03-12T00:45:23.909Z,-2.26
2023-03-12T00:46:23.942Z,-2.34
2023-03-12T00:47:23.898Z,-2.28
2023-03-12T00:48:23.895Z,-2.32
2023-03-12T00:49:23.871Z,-2.25
2023-03-12T00:50:23.861Z,-2.28
2023-03-12T00:51:23.861Z,-2.21
2023-03-12T00:52:23.900Z,-2.38
2023-03-12T00:53:24.599Z,-2.32
2023-03-12T00:54:23.836Z,-2.26
2023-03-12T00:55:23.831Z,-2.28
2023-03-12T00:56:23.824Z,-2.37
2023-03-12T00:57:23.815Z,-2.32
2023-03-12T00:58:23.806Z,-2.41
2023-03-12T00:59:23.798Z,-2.42
2023-03-12T01:00:23.824Z,-2.41
2023-03-12T01:01:23.772Z,-2.40
2023-03-12T01:02:24.605Z,-2.37
2023-03-12T01:03:23.779Z,-2.32
2023-03-12T01:04:23.787Z,-2.41
2023-03-12T01:05:23.759Z,-2.38
2023-03-12T01:06:23.743Z,-2.34
2023-03-12T01:07:23.753Z,-2.18
2023-03-12T01:08:23.762Z,-2.26
2023-03-12T01:09:23.731Z,-2.21
2023-03-12T01:10:23.755Z,-2.21
2023-03-12T01:11:23.715Z,-2.16
2023-03-12T01:12:23.689Z,-2.16
2023-03-12T01:13:23.715Z,-2.19
2023-03-12T01:14:23.683Z,-2.21
2023-03-12T01:15:23.687Z,-2.16
2023-03-12T01:16:23.670Z,-2.12
2023-03-12T01:17:23.670Z,-2.23
2023-03-12T01:18:23.669Z,-2.08
2023-03-12T01:19:23.748Z,-2.07
2023-03-12T01:20:23.638Z,-2.07
2023-03-12T01:21:23.647Z,-2.05
2023-03-12T01:22:23.628Z,-2.16
2023-03-12T01:23:23.640Z,-1.97
2023-03-12T01:24:23.648Z,-1.95
2023-03-12T01:25:23.597Z,-1.95
2023-03-12T01:26:23.616Z,-2.02
2023-03-12T01:27:23.586Z,-1.97
2023-03-12T01:28:23.592Z,-1.89
2023-03-12T01:29:23.594Z,-1.89
2023-03-12T01:30:23.616Z,-1.86
2023-03-12T01:31:23.602Z,-1.86
2023-03-12T01:32:23.587Z,-1.86
2023-03-12T01:33:23.540Z,-1.82
2023-03-12T01:34:23.524Z,-1.74
2023-03-12T01:35:24.572Z,-1.71
2023-03-12T01:36:23.537Z,-1.61
2023-03-12T01:37:23.511Z,-1.66
2023-03-12T01:38:23.499Z,-1.59
2023-03-12T01:39:23.506Z,-1.66
2023-03-12T01:40:23.497Z,-1.61
2023-03-12T01:41:23.480Z,-1.56
2023-03-12T01:42:23.467Z,-1.56
2023-03-12T01:43:23.457Z,-1.47
2023-03-12T01:44:23.449Z,-1.56
2023-03-12T01:45:23.452Z,-1.56
2023-03-12T01:46:23.445Z,-1.47
2023-03-12T01:47:23.447Z,-1.53
2023-03-12T01:48:23.426Z,-1.38
2023-03-12T01:49:23.404Z,-1.46
2023-03-12T01:50:23.416Z,-1.37
2023-03-12T01:51:23.397Z,-1.51
2023-03-12T01:52:23.385Z,-1.48
2023-03-12T01:53:23.381Z,-1.41
2023-03-12T01:54:23.366Z,-1.43
2023-03-12T01:55:23.366Z,-1.38
2023-03-12T01:56:23.350Z,-1.50
2023-03-12T01:57:23.344Z,-1.40
2023-03-12T01:58:23.381Z,-1.46
2023-03-12T01:59:23.341Z,-1.53
2023-03-12T02:00:23.332Z,-1.47
2023-03-12T02:01:23.429Z,-1.54
2023-03-12T02:02:23.308Z,-1.54
2023-03-12T02:03:23.288Z,-1.58
2023-03-12T02:04:24.328Z,-1.53
2023-03-12T02:05:23.284Z,-1.43
2023-03-12T02:06:23.357Z,-1.56
2023-03-12T02:07:23.291Z,-1.59
2023-03-12T02:08:23.272Z,-1.59
2023-03-12T02:09:23.328Z,-1.61
2023-03-12T02:10:23.263Z,-1.59
2023-03-12T02:11:23.242Z,-1.56
2023-03-12T02:12:23.234Z,-1.58
2023-03-12T02:13:23.225Z,-1.53
2023-03-12T02:14:23.212Z,-1.59
2023-03-12T02:15:23.203Z,-1.51
2023-03-12T02:16:23.275Z,-1.62
2023-03-12T02:17:23.204Z,-1.54
2023-03-12T02:18:23.175Z,-1.62
2023-03-12T02:19:23.164Z,-1.58
2023-03-12T02:20:23.166Z,-1.56
2023-03-12T02:21:23.152Z,-1.61
2023-03-12T02:22:23.158Z,-1.56
2023-03-12T02:23:23.153Z,-1.56
2023-03-12T02:24:23.138Z,-1.54
2023-03-12T02:25:23.119Z,-1.56
2023-03-12T02:26:23.105Z,-1.62
2023-03-12T02:27:23.136Z,-1.62
2023-03-12T02:28:23.126Z,-1.64
2023-03-12T02:29:23.087Z,-1.61
2023-03-12T02:30:23.137Z,-1.68
2023-03-12T02:31:23.134Z,-1.56
2023-03-12T02:32:23.244Z,-1.59
2023-03-12T02:33:23.068Z,-1.56
2023-03-12T02:34:23.047Z,-1.59
2023-03-12T02:35:23.061Z,-1.50
2023-03-12T02:36:23.041Z,-1.50
2023-03-12T02:37:23.024Z,-1.38
2023-03-12T02:38:23.051Z,-1.54
2023-03-12T02:39:23.617Z,-1.54
2023-03-12T02:40:23.030Z,-1.53
2023-03-12T02:41:22.994Z,-1.40
2023-03-12T02:42:22.999Z,-1.53
2023-03-12T02:43:22.979Z,-1.43
2023-03-12T02:44:22.986Z,-1.56
2023-03-12T02:45:22.975Z,-1.46
2023-03-12T02:46:23.064Z,-1.58
2023-03-12T02:47:22.953Z,-1.50
2023-03-12T02:48:22.936Z,-1.47
2023-03-12T02:49:22.945Z,-1.46
2023-03-12T02:50:22.950Z,-1.50
2023-03-12T02:51:22.934Z,-1.44
2023-03-12T02:52:22.915Z,-1.47
2023-03-12T02:53:22.916Z,-1.50
2023-03-12T02:54:22.911Z,-1.53
2023-03-12T02:55:22.903Z,-1.47
2023-03-12T02:56:22.885Z,-1.43
2023-03-12T02:57:22.890Z,-1.48
2023-03-12T02:58:22.869Z,-1.46
2023-03-12T02:59:22.871Z,-1.44
2023-03-12T03:00:22.851Z,-1.46
2023-03-12T03:01:22.876Z,-1.46
2023-03-12T03:02:22.840Z,-1.40
2023-03-12T03:03:22.827Z,-1.41
2023-03-12T03:04:22.931Z,-1.35
2023-03-12T03:05:22.842Z,-1.43
2023-03-12T03:06:23.613Z,-1.41
2023-03-12T03:07:22.800Z,-1.44
2023-03-12T03:08:22.803Z,-1.37
2023-03-12T03:09:22.781Z,-1.29
2023-03-12T03:10:22.792Z,-1.27
2023-03-12T03:11:23.590Z,-1.25
2023-03-12T03:12:23.632Z,-1.37
2023-03-12T03:13:22.750Z,-1.26
2023-03-12T03:14:22.758Z,-1.22
2023-03-12T03:15:22.733Z,-1.15
2023-03-12T03:16:22.730Z,-1.25
2023-03-12T03:17:22.730Z,-1.19
2023-03-12T03:18:23.630Z,-1.25
2023-03-12T03:19:22.714Z,-1.32
2023-03-12T03:20:22.714Z,-1.30
2023-03-12T03:21:22.697Z,-1.27
2023-03-12T03:22:22.678Z,-1.35
2023-03-12T03:23:22.665Z,-1.37
2023-03-12T03:24:22.700Z,-1.46
2023-03-12T03:25:22.675Z,-1.38
2023-03-12T03:26:22.662Z,-1.50
2023-03-12T03:27:22.643Z,-1.53
2023-03-12T03:28:22.646Z,-1.46
2023-03-12T03:29:22.660Z,-1.46
2023-03-12T03:30:22.609Z,-1.50
2023-03-12T03:31:22.716Z,-1.53
2023-03-12T03:32:22.650Z,-1.51
2023-03-12T03:33:22.610Z,-1.46
2023-03-12T03:34:22.599Z,-1.61
2023-03-12T03:35:22.618Z,-1.44
2023-03-12T03:36:22.587Z,-1.58
2023-03-12T03:37:22.566Z,-1.62
2023-03-12T03:38:22.581Z,-1.44
2023-03-12T03:39:22.568Z,-1.59
2023-03-12T03:40:22.539Z,-1.53
2023-03-12T03:41:22.520Z,-1.56
2023-03-12T03:42:22.529Z,-1.62
2023-03-12T03:43:22.565Z,-1.59
2023-03-12T03:44:22.504Z,-1.59
2023-03-12T03:45:22.501Z,-1.65
2023-03-12T03:46:22.566Z,-1.72
2023-03-12T03:47:22.487Z,-1.80
2023-03-12T03:48:22.489Z,-1.69
2023-03-12T03:49:22.484Z,-1.71
2023-03-12T03:50:22.472Z,-1.71
2023-03-12T03:51:22.483Z,-1.68
2023-03-12T03:52:22.445Z,-1.76
2023-03-12T03:53:22.443Z,-1.65
2023-03-12T03:54:22.447Z,-1.59
2023-03-12T03:55:22.434Z,-1.68
2023-03-12T03:56:22.410Z,-1.64
2023-03-12T03:57:22.420Z,-1.53
2023-03-12T03:58:22.408Z,-1.50
2023-03-12T03:59:22.387Z,-1.50
2023-03-12T04:00:22.400Z,-1.50
2023-03-12T04:01:22.372Z,-1.50
2023-03-12T04:02:22.374Z,-1.53
2023-03-12T04:03:22.408Z,-1.46
2023-03-12T04:04:22.396Z,-1.35
2023-03-12T04:05:22.418Z,-1.40
2023-03-12T04:06:22.341Z,-1.29
2023-03-12T04:07:22.330Z,-1.35
2023-03-12T04:08:22.329Z,-1.27
2023-03-12T04:09:22.316Z,-1.29
2023-03-12T04:10:22.301Z,-1.27
2023-03-12T04:11:22.295Z,-1.27
2023-03-12T04:12:22.287Z,-1.17
2023-03-12T04:13:22.320Z,-1.19
2023-03-12T04:14:22.289Z,-1.27
2023-03-12T04:15:22.278Z,-1.15
2023-03-12T04:16:22.333Z,-1.26
2023-03-12T04:17:22.258Z,-1.27
2023-03-12T04:18:22.260Z,-1.25
2023-03-12T04:19:22.236Z,-1.23
2023-03-12T04:20:23.120Z,-1.25
2023-03-12T04:21:22.206Z,-1.23
2023-03-12T04:22:22.216Z,-1.32
2023-03-12T04:23:22.206Z,-1.29
2023-03-12T04:24:22.199Z,-1.27
2023-03-12T04:25:22.187Z,-1.26
2023-03-12T04:26:22.182Z,-1.32
2023-03-12T04:27:22.177Z,-1.19
2023-03-12T04:28:22.164Z,-1.20
2023-03-12T04:29:22.151Z,-1.09
2023-03-12T04:30:22.167Z,-1.11
2023-03-12T04:31:22.187Z,-1.20
2023-03-12T04:32:22.160Z,-1.04
2023-03-12T04:33:22.126Z,-1.17
2023-03-12T04:34:22.111Z,-1.08
2023-03-12T04:35:22.100Z,-1.05
2023-03-12T04:36:22.106Z,-1.05
2023-03-12T04:37:22.122Z,-1.11
2023-03-12T04:38:22.088Z,-1.12
2023-03-12T04:39:22.103Z,-1.11
2023-03-12T04:40:22.133Z,-1.07
2023-03-12T04:41:22.065Z,-1.08
2023-03-12T04:42:22.068Z,-1.05
2023-03-12T04:43:22.049Z,-0.96
2023-03-12T04:44:22.038Z,-0.99
2023-03-12T04:45:22.040Z,-0.96
2023-03-12T04:46:22.090Z,-0.96
2023-03-12T04:47:22.023Z,-0.91
2023-03-12T04:48:22.020Z,-0.80
2023-03-12T04:49:21.994Z,-0.83
2023-03-12T04:50:22.013Z,-0.85
2023-03-12T04:51:22.012Z,-0.77
2023-03-12T04:52:21.979Z,-0.71
2023-03-12T04:53:22.091Z,-0.82
2023-03-12T04:54:21.969Z,-0.70
2023-03-12T04:55:21.975Z,-0.74
2023-03-12T04:56:21.949Z,-0.70
2023-03-12T04:57:21.944Z,-0.71
2023-03-12T04:58:22.695Z,-0.67
2023-03-12T04:59:21.936Z,-0.59
2023-03-12T05:00:21.947Z,-0.61
2023-03-12T05:01:21.903Z,-0.62
2023-03-12T05:02:21.969Z,-0.59
2023-03-12T05:03:21.906Z,-0.64
2023-03-12T05:04:21.899Z,-0.61
2023-03-12T05:05:21.890Z,-0.56
2023-03-12T05:06:21.883Z,-0.61
2023-03-12T05:07:21.866Z,-0.61
2023-03-12T05:08:21.868Z,-0.67
2023-03-12T05:09:21.853Z,-0.67
2023-03-12T05:10:21.852Z,-0.65
2023-03-12T05:11:21.853Z,-0.68
2023-03-12T05:12:21.840Z,-0.68
2023-03-12T05:13:21.840Z,-0.70
2023-03-12T05:14:21.809Z,-0.72
2023-03-12T05:15:21.808Z,-0.64
2023-03-12T05:16:21.784Z,-0.77
2023-03-12T05:17:21.801Z,-0.75
2023-03-12T05:18:21.772Z,-0.74
2023-03-12T05:19:21.790Z,-0.77
2023-03-12T05:20:21.779Z,-0.80
2023-03-12T05:21:22.641Z,-0.75
2023-03-12T05:22:22.274Z,-0.77
2023-03-12T05:23:21.733Z,-0.83
2023-03-12T05:24:21.762Z,-0.90
2023-03-12T05:25:21.783Z,-0.90
2023-03-12T05:26:21.714Z,-0.85
2023-03-12T05:27:21.721Z,-0.90
2023-03-12T05:28:21.731Z,-0.91
2023-03-12T05:29:21.704Z,-0.83
2023-03-12T05:30:21.707Z,-0.75
2023-03-12T05:31:21.765Z,-0.89
2023-03-12T05:32:21.734Z,-0.85
2023-03-12T05:33:21.669Z,-0.86
2023-03-12T05:34:21.669Z,-0.74
2023-03-12T05:35:21.665Z,-0.83
2023-03-12T05:36:21.706Z,-0.74
2023-03-12T05:37:21.655Z,-0.80
2023-03-12T05:38:21.671Z,-0.78
2023-03-12T05:39:21.663Z,-0.74
2023-03-12T05:40:21.610Z,-0.80
2023-03-12T05:41:21.599Z,-0.82
2023-03-12T05:42:21.603Z,-0.71
2023-03-12T05:43:21.579Z,-0.74
2023-03-12T05:44:21.742Z,-0.77
2023-03-12T05:45:21.569Z,-0.65
2023-03-12T05:46:21.574Z,-0.64
2023-03-12T05:47:21.557Z,-0.71
2023-03-12T05:48:21.554Z,-0.65
2023-03-12T05:49:21.529Z,-0.72
2023-03-12T05:50:21.555Z,-0.74
2023-03-12T05:51:21.543Z,-0.78
2023-03-12T05:52:21.504Z,-0.70
2023-03-12T05:53:21.536Z,-0.78
2023-03-12T05:54:21.493Z,-0.72
2023-03-12T05:55:21.519Z,-0.78
2023-03-12T05:56:21.510Z,-0.80
2023-03-12T05:57:21.482Z,-0.82
2023-03-12T05:58:21.476Z,-0.75
2023-03-12T05:59:21.477Z,-0.68
2023-03-12T06:00:21.441Z,-0.71
2023-03-12T06:01:21.459Z,-0.64
2023-03-12T06:02:21.499Z,-0.65
2023-03-12T06:03:21.550Z,-0.64
2023-03-12T06:04:21.418Z,-0.57
2023-03-12T06:05:21.426Z,-0.57
2023-03-12T06:06:21.420Z,-0.57
2023-03-12T06:07:21.383Z,-0.52
2023-03-12T06:08:21.407Z,-0.52
2023-03-12T06:09:21.409Z,-0.54
2023-03-12T06:10:21.378Z,-0.52
2023-03-12T06:11:21.366Z,-0.36
2023-03-12T06:12:21.373Z,-0.36
2023-03-12T06:13:21.354Z,-0.47
2023-03-12T06:14:21.359Z,-0.39
2023-03-12T06:15:21.328Z,-0.38
2023-03-12T06:16:21.349Z,-0.41
2023-03-12T06:17:21.327Z,-0.28
2023-03-12T06:18:21.314Z,-0.32
2023-03-12T06:19:21.308Z,-0.34
2023-03-12T06:20:21.296Z,-0.26
2023-03-12T06:21:21.312Z,-0.25
2023-03-12T06:22:21.271Z,-0.25
2023-03-12T06:23:21.672Z,-0.31
2023-03-12T06:24:22.261Z,-0.25
2023-03-12T06:25:21.265Z,-0.21
2023-03-12T06:26:21.249Z,-0.17
2023-03-12T06:27:22.148Z,-0.20
2023-03-12T06:28:21.241Z,-0.11
2023-03-12T06:29:21.243Z,-0.08
2023-03-12T06:30:21.245Z,0.01
2023-03-12T06:31:21.225Z,0.04
2023-03-12T06:32:21.226Z,0.10
2023-03-12T06:33:21.189Z,0.07
2023-03-12T06:34:21.184Z,0.07
2023-03-12T06:35:21.305Z,0.21
2023-03-12T06:36:21.719Z,0.22
2023-03-12T06:37:21.158Z,0.05
2023-03-12T06:38:21.158Z,0.15
2023-03-12T06:39:21.174Z,0.05
2023-03-12T06:40:21.134Z,0.18
2023-03-12T06:41:21.141Z,0.15
2023-03-12T06:42:21.118Z,0.19
2023-03-12T06:43:21.120Z,0.31
2023-03-12T06:44:21.126Z,0.29
2023-03-12T06:45:21.105Z,0.37
2023-03-12T06:46:21.107Z,0.46
2023-03-12T06:47:21.082Z,0.52
2023-03-12T06:48:21.082Z,0.62
2023-03-12T06:49:21.073Z,0.65
2023-03-12T06:50:21.065Z,0.80
2023-03-12T06:51:21.074Z,0.78
2023-03-12T06:52:21.043Z,0.78
2023-03-12T06:53:21.021Z,0.80
2023-03-12T06:54:21.044Z,0.86
2023-03-12T06:55:21.016Z,0.91
2023-03-12T06:56:21.007Z,0.88
2023-03-12T06:57:20.989Z,0.99
2023-03-12T06:58:20.996Z,1.04
2023-03-12T06:59:20.995Z,1.08
2023-03-12T07:00:20.979Z,1.05
2023-03-12T07:01:20.972Z,1.10
2023-03-12T07:02:21.088Z,1.12
2023-03-12T07:03:20.953Z,1.08
2023-03-12T07:04:20.950Z,1.10
2023-03-12T07:05:21.024Z,1.28
2023-03-12T07:06:20.940Z,1.14
2023-03-12T07:07:20.931Z,1.28
2023-03-12T07:08:20.933Z,1.20
2023-03-12T07:09:20.920Z,1.37
2023-03-12T07:10:20.895Z,1.34
2023-03-12T07:11:20.901Z,1.38
2023-03-12T07:12:20.898Z,1.44
2023-03-12T07:13:20.906Z,1.55
2023-03-12T07:14:20.880Z,1.55
2023-03-12T07:15:20.862Z,1.52
2023-03-12T07:16:20.883Z,1.63
2023-03-12T07:17:20.879Z,1.70
2023-03-12T07:18:20.846Z,1.59
2023-03-12T07:19:20.829Z,1.59
2023-03-12T07:20:20.857Z,1.67
2023-03-12T07:21:20.810Z,1.81
2023-03-12T07:22:20.803Z,1.68
2023-03-12T07:23:20.794Z,1.59
2023-03-12T07:24:20.824Z,1.58
2023-03-12T07:25:21.272Z,1.62
2023-03-12T07:26:20.761Z,1.66
2023-03-12T07:27:20.771Z,1.80
2023-03-12T07:28:20.781Z,1.89
2023-03-12T07:29:20.753Z,1.92
2023-03-12T07:30:20.735Z,2.02
2023-03-12T07:31:20.782Z,2.10
2023-03-12T07:32:20.760Z,2.24
2023-03-12T07:33:20.898Z,2.33
2023-03-12T07:34:20.904Z,2.28
2023-03-12T07:35:20.818Z,2.33
2023-03-12T07:36:20.765Z,2.31
2023-03-12T07:37:20.686Z,2.36
2023-03-12T07:38:20.698Z,2.29
2023-03-12T07:39:20.687Z,2.42
2023-03-12T07:40:20.642Z,2.53
2023-03-12T07:41:20.737Z,2.65
2023-03-12T07:42:20.678Z,2.75
2023-03-12T07:43:21.835Z,2.75
2023-03-12T07:44:20.626Z,2.92
2023-03-12T07:45:20.664Z,3.03
2023-03-12T07:46:20.623Z,3.01
2023-03-12T07:47:24.256Z,3.19
2023-03-12T07:48:21.742Z,3.23
2023-03-12T07:49:20.591Z,3.25
2023-03-12T07:50:20.607Z,3.29
2023-03-12T07:51:20.561Z,3.41
2023-03-12T07:52:20.622Z,3.48
2023-03-12T07:53:20.551Z,3.55
2023-03-12T07:54:20.569Z,3.68
2023-03-12T07:55:20.683Z,3.87
2023-03-12T07:56:20.657Z,3.96
2023-03-12T07:57:20.539Z,4.02
2023-03-12T07:58:20.676Z,4.30
2023-03-12T07:59:20.512Z,4.31
2023-03-12T08:00:20.532Z,4.08
2023-03-12T08:01:20.537Z,3.99
2023-03-12T08:02:20.599Z,3.95
2023-03-12T08:03:20.721Z,4.02
2023-03-12T08:04:20.589Z,4.14
2023-03-12T08:05:20.455Z,4.28
2023-03-12T08:06:20.475Z,4.31
2023-03-12T08:07:20.470Z,4.45
2023-03-12T08:08:20.464Z,4.49
2023-03-12T08:09:20.443Z,4.50
2023-03-12T08:10:20.506Z,4.68
2023-03-12T08:11:21.235Z,4.56
2023-03-12T08:12:20.449Z,4.78
2023-03-12T08:13:20.504Z,4.62
2023-03-12T08:14:20.407Z,4.73
2023-03-12T08:15:20.375Z,4.87
2023-03-12T08:16:21.157Z,4.82
2023-03-12T08:17:20.373Z,4.93
2023-03-12T08:18:20.359Z,4.82
2023-03-12T08:19:20.332Z,5.00
2023-03-12T08:20:20.322Z,5.02
2023-03-12T08:21:20.331Z,4.93
2023-03-12T08:22:20.337Z,4.77
2023-03-12T08:23:20.296Z,4.75
2023-03-12T08:24:20.306Z,4.53
2023-03-12T08:25:20.305Z,4.70
2023-03-12T08:26:20.277Z,4.67
2023-03-12T08:27:20.277Z,4.56
2023-03-12T08:28:20.276Z,4.50
2023-03-12T08:29:20.249Z,4.14
2023-03-12T08:30:20.234Z,3.98
2023-03-12T08:31:20.252Z,3.86
2023-03-12T08:32:20.376Z,3.88
2023-03-12T08:33:20.210Z,3.86
2023-03-12T08:34:20.205Z,3.91
2023-03-12T08:35:20.209Z,4.02
2023-03-12T08:36:22.382Z,3.96
2023-03-12T08:37:21.189Z,3.96
2023-03-12T08:38:20.186Z,4.06
2023-03-12T08:39:20.211Z,4.10
2023-03-12T08:40:20.167Z,4.02
2023-03-12T08:41:20.203Z,4.20
2023-03-12T08:42:20.152Z,4.04
2023-03-12T08:43:20.149Z,3.95
2023-03-12T08:44:20.129Z,3.95
2023-03-12T08:45:20.148Z,4.08
2023-03-12T08:46:20.201Z,4.24
2023-03-12T08:47:20.099Z,4.35
2023-03-12T08:48:20.106Z,4.48
2023-03-12T08:49:20.100Z,4.59
2023-03-12T08:50:20.075Z,4.60
2023-03-12T08:51:20.085Z,4.68
2023-03-12T08:52:20.060Z,4.59
2023-03-12T08:53:20.054Z,4.84
2023-03-12T08:54:20.058Z,4.82
2023-03-12T08:55:20.047Z,4.97
2023-03-12T08:56:20.032Z,5.00
2023-03-12T08:57:20.048Z,5.07
2023-03-12T08:58:20.032Z,5.20
2023-03-12T08:59:20.004Z,5.25
2023-03-12T09:00:20.018Z,5.17
2023-03-12T09:01:20.006Z,5.28
2023-03-12T09:02:19.994Z,5.36
2023-03-12T09:03:20.021Z,5.41
2023-03-12T09:04:20.103Z,5.43
2023-03-12T09:05:19.967Z,5.51
2023-03-12T09:06:19.963Z,5.50
2023-03-12T09:07:19.947Z,5.39
2023-03-12T09:08:19.942Z,5.38
2023-03-12T09:09:19.929Z,5.48
2023-03-12T09:10:19.927Z,5.54
2023-03-12T09:11:19.944Z,5.50
2023-03-12T09:12:19.908Z,5.62
2023-03-12T09:13:19.893Z,5.73
2023-03-12T09:15:01.036Z,5.76
2023-03-12T09:15:21.881Z,5.79
2023-03-12T09:16:19.944Z,5.71
2023-03-12T09:17:19.889Z,5.80
2023-03-12T09:18:19.902Z,5.82
2023-03-12T09:19:19.850Z,5.72
2023-03-12T09:20:19.833Z,5.72
2023-03-12T09:21:20.679Z,5.66
2023-03-12T09:22:19.826Z,5.72
2023-03-12T09:23:19.815Z,5.84
2023-03-12T09:24:19.800Z,5.84
2023-03-12T09:25:19.820Z,5.87
2023-03-12T09:26:19.804Z,5.90
2023-03-12T09:27:19.776Z,5.83
2023-03-12T09:28:19.772Z,5.90
2023-03-12T09:29:19.751Z,5.89
2023-03-12T09:30:19.824Z,5.98
2023-03-12T09:31:19.786Z,6.07
2023-03-12T09:32:19.737Z,6.02
2023-03-12T09:33:19.738Z,5.89
2023-03-12T09:34:20.714Z,5.65
2023-03-12T09:35:19.710Z,5.76
2023-03-12T09:36:19.706Z,5.66
2023-03-12T09:37:21.654Z,5.66
2023-03-12T09:38:19.725Z,5.59
2023-03-12T09:39:19.711Z,5.57
2023-03-12T09:40:19.669Z,5.66
2023-03-12T09:41:19.662Z,5.75
2023-03-12T09:42:19.652Z,5.62
2023-03-12T09:43:19.644Z,5.68
2023-03-12T09:44:19.635Z,5.64
2023-03-12T09:45:19.630Z,5.79
2023-03-12T09:46:19.666Z,5.64
2023-03-12T09:47:19.641Z,5.79
2023-03-12T09:48:20.260Z,5.82
2023-03-12T09:49:19.592Z,5.90
2023-03-12T09:50:19.583Z,5.84
2023-03-12T09:51:19.580Z,5.83
2023-03-12T09:52:19.566Z,5.84
2023-03-12T09:53:19.582Z,5.87
2023-03-12T09:54:19.577Z,5.75
2023-03-12T09:55:19.534Z,5.72
2023-03-12T09:56:20.189Z,5.72
2023-03-12T09:57:19.532Z,5.51
2023-03-12T09:58:19.532Z,5.41
2023-03-12T09:59:19.506Z,5.43
2023-03-12T10:00:19.516Z,5.56
2023-03-12T10:01:19.504Z,5.71
2023-03-12T10:02:19.528Z,5.61
2023-03-12T10:03:19.482Z,5.44
2023-03-12T10:04:19.496Z,5.23
2023-03-12T10:05:19.468Z,5.07
2023-03-12T10:06:19.449Z,5.11
2023-03-12T10:07:20.185Z,4.94
2023-03-12T10:08:24.588Z,5.00
2023-03-12T10:09:21.439Z,5.25
2023-03-12T10:10:21.173Z,5.20
2023-03-12T10:11:19.429Z,5.20
2023-03-12T10:12:19.421Z,5.15
2023-03-12T10:13:19.416Z,5.28
2023-03-12T10:14:23.862Z,5.30
2023-03-12T10:15:20.401Z,5.29
2023-03-12T10:16:19.476Z,5.30
2023-03-12T10:17:19.361Z,5.21
2023-03-12T10:18:19.520Z,5.20
2023-03-12T10:19:19.371Z,5.30
2023-03-12T10:20:19.350Z,5.36
2023-03-12T10:21:19.337Z,5.43
2023-03-12T10:22:19.346Z,5.44
2023-03-12T10:23:19.325Z,5.28
2023-03-12T10:24:19.329Z,5.29
2023-03-12T10:25:19.315Z,5.26
2023-03-12T10:26:19.309Z,5.26
2023-03-12T10:27:19.292Z,5.15
2023-03-12T10:28:19.316Z,5.17
2023-03-12T10:29:19.285Z,5.25
2023-03-12T10:30:19.291Z,5.30
2023-03-12T10:31:19.283Z,5.10
2023-03-12T10:32:19.302Z,5.21
2023-03-12T10:33:19.245Z,5.36
2023-03-12T10:34:19.243Z,5.33
2023-03-12T10:35:21.626Z,5.29
2023-03-12T10:36:20.228Z,5.23
2023-03-12T10:37:19.210Z,5.28
2023-03-12T10:38:19.212Z,5.35
2023-03-12T10:39:19.193Z,5.29
2023-03-12T10:40:19.185Z,5.26
2023-03-12T10:41:19.173Z,5.20
2023-03-12T10:42:19.162Z,5.35
2023-03-12T10:43:19.170Z,5.26
2023-03-12T10:44:19.166Z,5.23
2023-03-12T10:45:19.155Z,5.33
2023-03-12T10:46:19.208Z,5.29
2023-03-12T10:47:19.136Z,5.48
2023-03-12T10:48:19.122Z,5.38
2023-03-12T10:49:19.119Z,5.44
2023-03-12T10:50:19.109Z,5.29
2023-03-12T10:51:19.102Z,5.35
2023-03-12T10:52:19.107Z,5.35
2023-03-12T10:53:19.082Z,5.25
2023-03-12T10:54:19.094Z,5.35
2023-03-12T10:55:19.686Z,5.21
2023-03-12T10:56:19.067Z,5.25
2023-03-12T10:57:19.054Z,5.15
2023-03-12T10:58:19.036Z,5.18
2023-03-12T10:59:19.042Z,5.26
2023-03-12T11:00:19.069Z,5.12
2023-03-12T11:01:19.073Z,5.10
2023-03-12T11:02:19.708Z,5.00
2023-03-12T11:03:19.009Z,5.12
2023-03-12T11:04:19.692Z,5.10
2023-03-12T11:05:19.004Z,5.07
2023-03-12T11:06:19.011Z,5.00
2023-03-12T11:07:18.959Z,5.05
2023-03-12T11:08:18.996Z,4.96
2023-03-12T11:09:18.961Z,5.07
2023-03-12T11:10:18.947Z,5.17
2023-03-12T11:11:18.939Z,4.96
2023-03-12T11:12:18.917Z,4.90
2023-03-12T11:13:18.954Z,4.75
2023-03-12T11:14:18.956Z,4.80
2023-03-12T11:15:18.913Z,4.78
2023-03-12T11:16:18.988Z,4.84
2023-03-12T11:17:18.884Z,4.62
2023-03-12T11:18:18.936Z,4.71
2023-03-12T11:19:18.920Z,4.68
2023-03-12T11:20:18.887Z,4.59
2023-03-12T11:21:18.849Z,4.58
2023-03-12T11:22:18.849Z,4.60
2023-03-12T11:23:18.881Z,4.55
2023-03-12T11:24:18.829Z,4.55
2023-03-12T11:25:18.823Z,4.60
2023-03-12T11:26:18.823Z,4.45
2023-03-12T11:27:18.807Z,4.49
2023-03-12T11:28:18.835Z,4.52
2023-03-12T11:29:18.863Z,4.48
2023-03-12T11:30:18.804Z,4.42
2023-03-12T11:31:18.872Z,4.41
2023-03-12T11:32:18.839Z,4.32
2023-03-12T11:33:18.771Z,4.37
2023-03-12T11:34:18.753Z,4.41
2023-03-12T11:35:18.767Z,4.52
2023-03-12T11:36:18.730Z,4.48
2023-03-12T11:37:18.729Z,4.50
2023-03-12T11:38:18.755Z,4.53
2023-03-12T11:39:18.761Z,4.63
2023-03-12T11:40:19.724Z,4.56
2023-03-12T11:41:18.724Z,4.63
2023-03-12T11:42:18.693Z,4.62
2023-03-12T11:43:29.247Z,4.68
2023-03-12T11:44:19.669Z,4.80
2023-03-12T11:45:18.669Z,4.92
2023-03-12T11:46:18.658Z,4.97
2023-03-12T11:47:18.668Z,4.99
2023-03-12T11:48:18.705Z,4.94
2023-03-12T11:49:18.639Z,4.75
2023-03-12T11:50:18.671Z,4.86
2023-03-12T11:51:18.602Z,4.82
2023-03-12T11:52:18.648Z,4.87
2023-03-12T11:53:18.599Z,4.92
2023-03-12T11:54:18.588Z,4.77
2023-03-12T11:55:18.582Z,4.80
2023-03-12T11:56:18.589Z,4.77
2023-03-12T11:57:18.556Z,4.73
2023-03-12T11:58:19.207Z,4.82
2023-03-12T11:59:18.554Z,4.89
2023-03-12T12:00:18.542Z,5.02
2023-03-12T12:01:18.527Z,5.04
2023-03-12T12:02:18.600Z,5.26
2023-03-12T12:03:18.550Z,5.25
2023-03-12T12:04:19.200Z,5.15
2023-03-12T12:05:18.504Z,5.11
2023-03-12T12:06:18.515Z,5.14
2023-03-12T12:07:18.483Z,5.33
2023-03-12T12:08:19.293Z,5.32
2023-03-12T12:09:18.457Z,5.43
2023-03-12T12:10:18.486Z,5.48
2023-03-12T12:11:18.436Z,5.46
2023-03-12T12:12:19.213Z,5.38
2023-03-12T12:13:18.481Z,5.53
2023-03-12T12:14:18.438Z,5.43
2023-03-12T12:15:18.428Z,5.39
2023-03-12T12:16:18.476Z,5.35
2023-03-12T12:17:18.812Z,5.47
2023-03-12T12:18:18.387Z,5.29
2023-03-12T12:19:18.422Z,5.50
2023-03-12T12:20:18.494Z,5.53
2023-03-12T12:21:18.394Z,5.46
2023-03-12T12:22:18.382Z,5.28
2023-03-12T12:23:18.353Z,5.25
2023-03-12T12:24:18.390Z,5.28
2023-03-12T12:25:18.345Z,5.30
2023-03-12T12:26:18.333Z,5.23
2023-03-12T12:27:18.394Z,5.38
2023-03-12T12:28:18.376Z,5.33
2023-03-12T12:29:18.295Z,5.20
2023-03-12T12:30:18.393Z,5.17
2023-03-12T12:31:18.363Z,5.08
2023-03-12T12:32:18.345Z,5.18
2023-03-12T12:33:18.324Z,5.21
2023-03-12T12:34:18.336Z,5.12
2023-03-12T12:35:18.245Z,5.20
2023-03-12T12:36:18.269Z,5.15
2023-03-12T12:37:18.286Z,5.47
2023-03-12T12:38:18.225Z,5.38
2023-03-12T12:39:18.236Z,5.29
2023-03-12T12:40:18.242Z,5.32
2023-03-12T12:41:18.197Z,5.21
2023-03-12T12:42:18.186Z,5.46
2023-03-12T12:43:18.179Z,5.33
2023-03-12T12:44:18.186Z,5.39
2023-03-12T12:45:18.166Z,5.35
2023-03-12T12:46:18.222Z,5.25
2023-03-12T12:47:18.161Z,5.35
2023-03-12T12:48:18.140Z,5.35
2023-03-12T12:49:18.147Z,5.38
2023-03-12T12:50:18.715Z,5.38
2023-03-12T12:51:18.126Z,5.35
2023-03-12T12:52:18.122Z,5.33
2023-03-12T12:53:18.088Z,5.39
2023-03-12T12:54:18.101Z,5.26
2023-03-12T12:55:18.081Z,5.28
2023-03-12T12:56:18.080Z,5.43
2023-03-12T12:57:18.065Z,5.33
2023-03-12T12:58:19.078Z,5.33
2023-03-12T12:59:18.070Z,5.50
2023-03-12T13:00:18.122Z,5.68
2023-03-12T13:01:18.212Z,5.73
2023-03-12T13:02:18.023Z,5.79
2023-03-12T13:03:18.044Z,5.80
2023-03-12T13:04:18.084Z,5.80
2023-03-12T13:05:19.015Z,5.66
2023-03-12T13:06:17.999Z,5.47